Time;durP1;ratioP1;P1;durP2;ratioP2;P2;SDS_P1;SDS_P2;PMS_P1;PMS_P2;Temp;Humidity;BMP_temperature;BMP_pressure;BME280_temperature;BME280_humidity;BME280_pressure;Samples;Min_cycle;Max_cycle;Signal;HPM_P1;HPM_P2
2022/05/08 00:01:14;;;;;;;8.03;5.00;;;15.00;99.90;;;;;;4955193;28;20217;-71
2022/05/08 00:03:40;;;;;;;6.30;4.90;;;14.90;99.90;;;;;;4951318;28;20203;-69
2022/05/08 00:06:10;;;;;;;6.83;5.63;;;14.90;99.90;;;;;;4951509;28;20343;-72
2022/05/08 00:08:38;;;;;;;6.77;5.80;;;15.10;99.90;;;;;;4958362;28;20266;-71
2022/05/08 00:11:05;;;;;;;9.63;5.33;;;15.30;99.90;;;;;;4958318;28;20353;-71
2022/05/08 00:13:33;;;;;;;9.70;5.77;;;15.30;99.90;;;;;;4958067;28;20209;-71
2022/05/08 00:16:00;;;;;;;8.67;4.73;;;15.20;99.90;;;;;;4957708;28;20194;-72
2022/05/08 00:18:27;;;;;;;6.77;5.23;;;15.10;99.90;;;;;;4947842;28;20215;-71
2022/05/08 00:20:53;;;;;;;7.53;5.63;;;15.00;99.90;;;;;;4960103;28;20198;-72
2022/05/08 00:23:20;;;;;;;9.67;5.67;;;14.80;99.90;;;;;;4954851;28;20195;-71
2022/05/08 00:25:46;;;;;;;7.87;5.07;;;14.70;99.90;;;;;;4958257;28;20206;-72
2022/05/08 00:28:13;;;;;;;10.23;5.57;;;14.70;99.90;;;;;;4954865;28;20713;-71
2022/05/08 00:30:41;;;;;;;7.07;5.77;;;14.70;99.90;;;;;;4955901;28;20214;-71
2022/05/08 00:33:08;;;;;;;6.87;5.57;;;14.60;99.90;;;;;;4956124;28;20205;-72
2022/05/08 00:35:34;;;;;;;7.40;5.50;;;14.60;99.90;;;;;;4955783;28;20205;-69
2022/05/08 00:38:02;;;;;;;7.27;5.57;;;14.50;99.90;;;;;;4954723;28;20276;-71
2022/05/08 00:40:32;;;;;;;9.27;6.20;;;14.50;99.90;;;;;;4942195;28;20201;-71
2022/05/08 00:43:38;;;;;;;8.57;5.97;;;14.60;99.90;;;;;;4952833;28;20202;-71
2022/05/08 00:46:10;;;;;;;8.03;5.83;;;14.60;99.90;;;;;;4954865;28;20204;-72
2022/05/08 00:48:37;;;;;;;8.30;6.60;;;14.70;99.90;;;;;;4944725;28;20599;-71
2022/05/08 00:51:06;;;;;;;7.20;5.87;;;14.70;99.90;;;;;;4957884;28;20248;-73
2022/05/08 00:53:38;;;;;;;7.60;6.10;;;14.80;99.90;;;;;;4952271;28;20191;-71
2022/05/08 00:56:07;;;;;;;9.17;5.47;;;14.80;99.90;;;;;;4955416;28;20201;-71
2022/05/08 00:58:36;;;;;;;9.43;6.00;;;14.80;99.90;;;;;;4947590;28;20226;-71
2022/05/08 01:01:03;;;;;;;8.33;5.33;;;14.70;99.90;;;;;;4946918;28;20194;-72
2022/05/08 01:03:31;;;;;;;8.03;5.93;;;14.60;99.90;;;;;;4953872;28;20195;-71
2022/05/08 01:05:59;;;;;;;8.73;6.40;;;14.50;99.90;;;;;;4956199;28;20193;-71
2022/05/08 01:08:26;;;;;;;9.07;6.60;;;14.40;99.90;;;;;;4953363;28;20645;-71
2022/05/08 01:10:54;;;;;;;9.43;6.13;;;14.40;99.90;;;;;;4957120;28;20213;-71
2022/05/08 01:13:20;;;;;;;8.97;6.07;;;14.40;99.90;;;;;;4958673;28;20202;-72
2022/05/08 01:15:48;;;;;;;8.47;5.40;;;14.40;99.90;;;;;;4951760;28;20709;-71
2022/05/08 01:18:16;;;;;;;8.70;5.93;;;14.30;99.90;;;;;;4951327;28;20742;-71
2022/05/08 01:20:45;;;;;;;6.93;5.30;;;14.30;99.90;;;;;;4954752;28;20242;-72
2022/05/08 01:23:12;;;;;;;8.80;5.90;;;14.20;99.90;;;;;;4953692;28;20770;-70
2022/05/08 01:25:51;;;;;;;8.27;5.40;;;14.10;99.90;;;;;;4958695;28;20202;-73
2022/05/08 01:28:19;;;;;;;9.33;5.30;;;14.10;99.90;;;;;;4956090;28;20377;-70
2022/05/08 01:30:48;;;;;;;7.97;6.30;;;14.00;99.90;;;;;;4957049;28;20218;-70
2022/05/08 01:33:15;;;;;;;7.90;6.00;;;13.90;99.90;;;;;;4947605;28;20257;-71
2022/05/08 01:35:42;;;;;;;9.10;6.20;;;13.80;99.90;;;;;;4953934;28;20212;-72
2022/05/08 01:38:11;;;;;;;8.30;6.13;;;13.80;99.90;;;;;;4949613;28;20232;-71
2022/05/08 01:40:38;;;;;;;8.07;5.67;;;13.70;99.90;;;;;;4951197;28;20264;-73
2022/05/08 01:43:06;;;;;;;8.90;6.37;;;13.80;99.90;;;;;;4956766;28;20609;-70
2022/05/08 01:45:33;;;;;;;8.33;6.50;;;13.80;99.90;;;;;;4958414;28;20204;-71
2022/05/08 01:50:45;;;;;;;7.40;5.70;;;13.70;99.90;;;;;;4950214;28;20626;-71
2022/05/08 01:53:12;;;;;;;8.23;6.27;;;13.60;99.90;;;;;;4951212;28;20206;-72
2022/05/08 01:55:39;;;;;;;7.83;6.30;;;13.60;99.90;;;;;;4946797;28;20204;-71
2022/05/08 01:58:06;;;;;;;10.53;6.33;;;13.50;99.90;;;;;;4950994;28;20223;-70
2022/05/08 02:00:32;;;;;;;8.77;6.20;;;13.50;99.90;;;;;;4954955;28;20209;-71
2022/05/08 02:03:00;;;;;;;9.90;5.90;;;13.50;99.90;;;;;;4956952;28;20251;-71
2022/05/08 02:05:28;;;;;;;10.30;7.17;;;13.40;99.90;;;;;;4948718;28;20192;-71
2022/05/08 02:07:55;;;;;;;8.90;6.40;;;13.40;99.90;;;;;;4959126;28;20224;-72
2022/05/08 02:10:23;;;;;;;8.97;6.53;;;13.50;99.90;;;;;;4956060;28;20201;-70
2022/05/08 02:12:49;;;;;;;8.23;6.13;;;13.40;99.90;;;;;;4959982;28;20246;-73
2022/05/08 02:15:16;;;;;;;9.90;6.50;;;13.30;99.90;;;;;;4951256;28;20242;-72
2022/05/08 02:17:43;;;;;;;7.67;6.20;;;13.30;99.90;;;;;;4958552;28;20236;-72
2022/05/08 02:20:11;;;;;;;8.90;7.17;;;13.20;99.90;;;;;;4956678;28;20203;-72
2022/05/08 02:22:38;;;;;;;11.07;7.47;;;13.10;99.90;;;;;;4953805;28;20208;-73
2022/05/08 02:25:06;;;;;;;10.80;7.30;;;13.10;99.90;;;;;;4961424;28;20710;-70
2022/05/08 02:27:39;;;;;;;9.00;7.37;;;13.20;99.90;;;;;;4956260;28;20222;-70
2022/05/08 02:30:08;;;;;;;9.40;6.60;;;13.30;99.90;;;;;;4954828;28;20226;-72
2022/05/08 02:32:35;;;;;;;10.07;6.73;;;13.30;99.90;;;;;;4954933;28;20202;-70
2022/05/08 02:35:04;;;;;;;8.20;6.83;;;13.30;99.90;;;;;;4950944;28;20670;-70
2022/05/08 02:37:30;;;;;;;8.67;6.73;;;13.20;99.90;;;;;;4957817;28;20224;-71
2022/05/08 02:39:57;;;;;;;9.83;7.37;;;13.10;99.90;;;;;;4953206;28;20197;-72
2022/05/08 02:42:26;;;;;;;8.87;7.20;;;13.20;99.90;;;;;;4952230;28;20199;-70
2022/05/08 02:44:53;;;;;;;9.30;7.10;;;13.40;99.90;;;;;;4956231;28;20232;-70
2022/05/08 02:47:19;;;;;;;10.77;7.03;;;13.30;99.90;;;;;;4954649;28;20223;-71
2022/05/08 02:49:46;;;;;;;9.47;7.20;;;13.20;99.90;;;;;;4952600;28;20217;-72
2022/05/08 02:52:13;;;;;;;8.17;6.63;;;13.10;99.90;;;;;;4956030;28;20208;-70
2022/05/08 02:54:39;;;;;;;9.90;6.60;;;13.00;99.90;;;;;;4959376;28;20223;-72
2022/05/08 02:59:51;;;;;;;9.87;7.20;;;13.00;99.90;;;;;;4955387;28;20665;-72
2022/05/08 03:02:18;;;;;;;11.33;7.33;;;12.90;99.90;;;;;;4950928;28;20198;-71
2022/05/08 03:04:45;;;;;;;10.73;7.20;;;12.90;99.90;;;;;;4958640;28;20198;-70
2022/05/08 03:07:13;;;;;;;10.33;6.90;;;12.90;99.90;;;;;;4957445;28;20220;-71
2022/05/08 03:09:39;;;;;;;11.27;7.10;;;12.90;99.90;;;;;;4956870;28;20211;-70
2022/05/08 03:12:07;;;;;;;9.87;6.83;;;12.80;99.90;;;;;;4956414;28;20202;-69
2022/05/08 03:14:33;;;;;;;11.43;7.63;;;12.90;99.90;;;;;;4952336;28;20209;-70
2022/05/08 03:17:00;;;;;;;10.43;7.47;;;13.10;99.90;;;;;;4959115;28;20225;-69
2022/05/08 03:19:27;;;;;;;10.50;8.00;;;13.20;99.90;;;;;;4950835;28;20208;-71
2022/05/08 03:21:54;;;;;;;13.83;8.23;;;13.20;99.90;;;;;;4961086;28;20206;-70
2022/05/08 03:24:21;;;;;;;13.63;8.87;;;13.30;99.90;;;;;;4952530;28;20203;-72
2022/05/08 03:26:47;;;;;;;13.77;7.60;;;13.40;99.90;;;;;;4961765;28;21000;-70
2022/05/08 03:29:14;;;;;;;12.77;8.07;;;13.60;99.90;;;;;;4951273;28;20196;-70
2022/05/08 03:31:40;;;;;;;12.70;8.20;;;13.60;99.90;;;;;;4961272;28;20587;-70
2022/05/08 03:34:07;;;;;;;13.70;8.27;;;13.70;99.90;;;;;;4959196;28;20248;-70
2022/05/08 03:36:34;;;;;;;11.07;8.00;;;13.70;99.90;;;;;;4956559;28;20202;-71
2022/05/08 03:39:00;;;;;;;11.90;7.83;;;13.70;99.90;;;;;;4950143;28;20222;-70
2022/05/08 03:41:27;;;;;;;11.37;7.93;;;13.70;99.90;;;;;;4950387;28;20671;-71
2022/05/08 03:43:55;;;;;;;12.00;7.93;;;13.70;99.90;;;;;;4960466;28;20254;-71
2022/05/08 03:46:22;;;;;;;13.17;7.93;;;13.80;99.90;;;;;;4954101;28;20197;-70
2022/05/08 03:48:49;;;;;;;14.20;8.37;;;13.70;99.90;;;;;;4920229;28;1075010;-70
2022/05/08 03:51:16;;;;;;;12.37;8.60;;;13.70;99.90;;;;;;4958012;28;20195;-70
2022/05/08 03:53:43;;;;;;;14.53;8.67;;;13.60;99.90;;;;;;4957375;28;20580;-70
2022/05/08 03:56:09;;;;;;;12.70;8.77;;;13.60;99.90;;;;;;4964286;28;20201;-70
2022/05/08 03:58:36;;;;;;;13.53;8.63;;;13.60;99.90;;;;;;4952962;28;20226;-70
2022/05/08 04:01:03;;;;;;;11.17;8.20;;;13.70;99.90;;;;;;4961675;28;20609;-71
2022/05/08 04:03:30;;;;;;;10.73;7.80;;;13.60;99.90;;;;;;4957640;28;20201;-71
2022/05/08 04:05:57;;;;;;;10.47;7.33;;;13.60;99.90;;;;;;4965209;28;20190;-70
2022/05/08 04:08:24;;;;;;;12.37;8.27;;;13.40;99.90;;;;;;4957608;28;20224;-70
2022/05/08 04:10:50;;;;;;;11.73;8.23;;;13.50;99.90;;;;;;4958556;28;20207;-71
2022/05/08 04:13:17;;;;;;;11.43;7.60;;;13.50;99.90;;;;;;4954071;28;20203;-72
2022/05/08 04:18:29;;;;;;;11.30;7.70;;;13.30;99.90;;;;;;4953460;28;20280;-71
2022/05/08 04:20:56;;;;;;;12.10;7.97;;;13.20;99.90;;;;;;4964387;28;20585;-72
2022/05/08 04:26:07;;;;;;;11.13;7.53;;;13.20;99.90;;;;;;4959204;28;20232;-71
2022/05/08 04:28:34;;;;;;;9.13;6.97;;;13.10;99.90;;;;;;4957700;28;20536;-69
2022/05/08 04:31:01;;;;;;;11.60;8.03;;;13.10;99.90;;;;;;4956083;28;20198;-70
2022/05/08 04:33:27;;;;;;;11.10;7.97;;;13.10;99.90;;;;;;4956791;28;20196;-71
2022/05/08 04:35:54;;;;;;;13.10;7.70;;;13.30;99.90;;;;;;4961095;28;20207;-71
2022/05/08 04:38:20;;;;;;;15.60;8.50;;;13.40;99.90;;;;;;4951103;28;20254;-73
2022/05/08 04:40:47;;;;;;;9.50;7.30;;;13.50;99.90;;;;;;4961762;28;20210;-71
2022/05/08 04:43:14;;;;;;;11.23;8.40;;;13.50;99.90;;;;;;4959251;28;20686;-72
2022/05/08 04:45:40;;;;;;;12.30;7.53;;;13.50;99.90;;;;;;4957761;28;20205;-71
2022/05/08 04:48:07;;;;;;;13.40;7.63;;;13.50;99.90;;;;;;4958437;28;20228;-70
2022/05/08 04:50:34;;;;;;;13.33;7.70;;;13.70;99.90;;;;;;4961158;28;20210;-70
2022/05/08 04:53:00;;;;;;;9.50;6.93;;;13.80;99.90;;;;;;4961336;28;20196;-71
2022/05/08 04:55:27;;;;;;;8.87;7.13;;;13.80;99.90;;;;;;4955372;28;20198;-72
2022/05/08 04:57:54;;;;;;;10.93;7.73;;;13.80;99.90;;;;;;4963934;28;20252;-71
2022/05/08 05:00:21;;;;;;;10.97;7.47;;;13.90;99.90;;;;;;4955056;28;20193;-69
2022/05/08 05:02:48;;;;;;;11.27;8.00;;;14.00;99.90;;;;;;4963956;28;20204;-71
2022/05/08 05:05:15;;;;;;;12.33;7.93;;;14.00;99.90;;;;;;4958224;28;20206;-71
2022/05/08 05:07:42;;;;;;;12.80;8.20;;;14.10;99.90;;;;;;4962365;28;20235;-70
2022/05/08 05:10:10;;;;;;;10.63;7.47;;;14.20;99.90;;;;;;4959741;28;20202;-72
2022/05/08 05:12:38;;;;;;;9.83;6.63;;;14.30;99.90;;;;;;4957098;28;20202;-70
2022/05/08 05:15:06;;;;;;;10.20;7.43;;;14.20;99.90;;;;;;4962804;28;20195;-71
2022/05/08 05:17:33;;;;;;;10.17;7.70;;;14.30;99.90;;;;;;4961592;28;20232;-72
2022/05/08 05:20:00;;;;;;;13.37;8.23;;;14.50;99.90;;;;;;4964092;28;20223;-71
2022/05/08 05:22:28;;;;;;;10.57;7.53;;;14.50;99.90;;;;;;4960751;28;20655;-71
2022/05/08 05:24:57;;;;;;;10.10;7.80;;;14.50;99.90;;;;;;4957836;28;20206;-71
2022/05/08 05:27:25;;;;;;;11.20;7.63;;;14.50;99.90;;;;;;4961570;28;20899;-70
2022/05/08 05:29:52;;;;;;;10.37;6.93;;;14.60;99.90;;;;;;4959596;28;20264;-69
2022/05/08 05:32:18;;;;;;;10.53;7.57;;;14.70;99.90;;;;;;4959030;28;20205;-70
2022/05/08 05:34:45;;;;;;;10.80;6.57;;;14.80;99.90;;;;;;4959507;28;20208;-70
2022/05/08 05:37:12;;;;;;;10.37;7.13;;;15.00;99.90;;;;;;4964084;28;20220;-70
2022/05/08 05:39:38;;;;;;;10.27;6.87;;;15.10;99.90;;;;;;4949704;28;20511;-71
2022/05/08 05:42:05;;;;;;;12.07;7.70;;;15.20;99.90;;;;;;4964094;28;20198;-69
2022/05/08 05:44:32;;;;;;;11.10;7.20;;;15.20;99.90;;;;;;4957919;28;20220;-70
2022/05/08 05:49:43;;;;;;;10.80;6.80;;;15.60;99.90;;;;;;4958429;28;20210;-69
2022/05/08 05:52:10;;;;;;;9.53;6.83;;;15.80;99.90;;;;;;4960348;28;20202;-70
2022/05/08 05:54:37;;;;;;;8.73;7.03;;;15.90;99.90;;;;;;4961534;28;20202;-71
2022/05/08 05:57:03;;;;;;;10.70;6.73;;;15.90;99.90;;;;;;4953279;28;20280;-69
2022/05/08 05:59:30;;;;;;;9.87;7.10;;;15.90;99.90;;;;;;4960219;28;20229;-71
2022/05/08 06:02:05;;;;;;;10.67;7.10;;;16.00;99.90;;;;;;4948699;28;20673;-69
2022/05/08 06:04:32;;;;;;;9.77;6.93;;;15.80;99.90;;;;;;4953760;28;20200;-70
2022/05/08 06:06:59;;;;;;;10.30;7.40;;;15.80;99.90;;;;;;4963797;28;20245;-69
2022/05/08 06:09:26;;;;;;;10.27;7.13;;;15.80;99.90;;;;;;4962572;28;20208;-69
2022/05/08 06:11:53;;;;;;;10.67;6.90;;;15.80;99.90;;;;;;4962262;28;20206;-69
2022/05/08 06:14:20;;;;;;;9.80;7.30;;;16.00;99.90;;;;;;4961813;28;20696;-69
2022/05/08 06:16:47;;;;;;;9.37;6.90;;;15.80;99.90;;;;;;4955051;28;20233;-71
2022/05/08 06:19:13;;;;;;;10.73;6.67;;;16.00;99.90;;;;;;4959926;28;20213;-70
2022/05/08 06:21:40;;;;;;;11.40;7.37;;;16.20;99.90;;;;;;4960076;28;20198;-70
2022/05/08 06:24:07;;;;;;;7.87;6.00;;;16.30;99.90;;;;;;4954596;28;20464;-70
2022/05/08 06:26:34;;;;;;;8.13;6.80;;;16.40;99.90;;;;;;4961474;28;20237;-70
2022/05/08 06:29:00;;;;;;;8.73;6.50;;;16.60;99.90;;;;;;4958880;28;20221;-69
2022/05/08 06:31:27;;;;;;;8.60;6.00;;;16.70;99.90;;;;;;4954363;28;20203;-70
2022/05/08 06:33:55;;;;;;;9.57;6.43;;;16.80;99.90;;;;;;4951243;28;20755;-70
2022/05/08 06:36:21;;;;;;;9.43;6.77;;;16.90;99.90;;;;;;4958484;28;20661;-68
2022/05/08 06:38:48;;;;;;;10.40;6.77;;;17.00;99.90;;;;;;4953359;28;20277;-71
2022/05/08 06:41:15;;;;;;;9.17;6.53;;;17.10;99.90;;;;;;4959620;28;20194;-70
2022/05/08 06:43:42;;;;;;;9.37;5.63;;;17.10;99.90;;;;;;4961725;28;20199;-70
2022/05/08 06:46:08;;;;;;;9.77;6.10;;;17.30;99.90;;;;;;4965289;28;20245;-72
2022/05/08 06:48:35;;;;;;;8.93;6.50;;;17.40;99.90;;;;;;4956448;28;20661;-70
2022/05/08 06:51:03;;;;;;;9.17;6.07;;;17.60;99.90;;;;;;4951843;28;20202;-71
2022/05/08 06:53:31;;;;;;;8.80;6.60;;;17.70;99.90;;;;;;4958820;28;20688;-71
2022/05/08 06:55:57;;;;;;;7.03;5.60;;;17.80;99.90;;;;;;4965176;28;20614;-71
2022/05/08 06:58:27;;;;;;;9.33;6.37;;;18.00;99.90;;;;;;4948302;28;20238;-71
2022/05/08 07:03:39;;;;;;;8.13;5.77;;;18.40;99.90;;;;;;4952368;28;20211;-71
2022/05/08 07:06:06;;;;;;;6.97;5.33;;;18.90;99.90;;;;;;4953165;28;20198;-70
2022/05/08 07:08:33;;;;;;;6.87;5.00;;;19.50;99.90;;;;;;4959768;28;20233;-71
2022/05/08 07:11:00;;;;;;;6.30;4.70;;;19.80;99.90;;;;;;4960994;28;20271;-71
2022/05/08 07:13:29;;;;;;;6.77;5.27;;;20.20;99.90;;;;;;4963360;28;20205;-72
2022/05/08 07:15:55;;;;;;;6.03;5.20;;;20.50;99.90;;;;;;4959470;28;20523;-71
2022/05/08 07:18:25;;;;;;;8.37;5.13;;;20.80;99.90;;;;;;4960950;28;20229;-71
2022/05/08 07:20:51;;;;;;;8.33;5.17;;;20.80;99.90;;;;;;4959339;28;20253;-71
2022/05/08 07:23:18;;;;;;;6.70;5.23;;;20.80;99.90;;;;;;4960633;28;20652;-71
2022/05/08 07:25:45;;;;;;;7.50;4.87;;;21.10;99.90;;;;;;4953747;28;20198;-71
2022/05/08 07:28:12;;;;;;;7.27;5.50;;;21.10;99.90;;;;;;4965074;28;20264;-70
2022/05/08 07:30:38;;;;;;;7.87;5.07;;;21.00;99.90;;;;;;4960900;28;20583;-73
2022/05/08 07:33:05;;;;;;;8.70;5.35;;;21.20;99.90;;;;;;4956434;28;20701;-71
2022/05/08 07:38:23;;;;;;;8.43;5.67;;;20.90;99.90;;;;;;4950312;28;20702;-71
2022/05/08 07:40:51;;;;;;;7.97;5.87;;;20.70;99.90;;;;;;4959623;28;20198;-72
2022/05/08 07:43:17;;;;;;;9.10;5.00;;;20.50;99.90;;;;;;4950772;28;20666;-71
2022/05/08 07:45:45;;;;;;;7.43;5.10;;;20.50;99.90;;;;;;4952094;28;20257;-72
2022/05/08 07:48:12;;;;;;;7.97;5.40;;;20.70;99.90;;;;;;4953997;28;20226;-71
2022/05/08 07:50:39;;;;;;;6.85;5.30;;;20.70;99.90;;;;;;4947011;28;20206;-71
2022/05/08 07:53:05;;;;;;;7.50;5.57;;;20.90;99.90;;;;;;4958681;28;20260;-73
2022/05/08 07:55:32;;;;;;;7.22;5.43;;;21.00;99.90;;;;;;4953511;28;20194;-71
2022/05/08 07:57:59;;;;;;;6.80;5.45;;;20.80;99.90;;;;;;4959090;28;20217;-71
2022/05/08 08:00:26;;;;;;;10.73;5.60;;;20.80;99.90;;;;;;4953970;28;20430;-71
2022/05/08 08:02:53;;;;;;;8.27;5.27;;;20.70;99.90;;;;;;4946340;28;20203;-72
2022/05/08 08:05:20;;;;;;;7.90;5.57;;;20.80;99.90;;;;;;4964153;28;20546;-71
2022/05/08 08:07:47;;;;;;;7.00;5.60;;;20.90;99.90;;;;;;4962095;28;20306;-72
2022/05/08 08:10:14;;;;;;;6.03;5.05;;;21.00;99.90;;;;;;4965345;28;20228;-71
2022/05/08 08:12:41;;;;;;;6.30;4.75;;;21.10;99.90;;;;;;4960137;28;20206;-72
2022/05/08 08:15:09;;;;;;;6.82;5.57;;;21.20;99.90;;;;;;4954956;28;20197;-70
2022/05/08 08:17:36;;;;;;;9.40;5.40;;;21.40;99.90;;;;;;4957006;28;20222;-73
2022/05/08 08:20:03;;;;;;;10.27;5.90;;;21.60;99.90;;;;;;4955372;28;20225;-73
2022/05/08 08:22:31;;;;;;;10.45;5.50;;;21.50;99.90;;;;;;4962053;28;20199;-71
2022/05/08 08:24:59;;;;;;;7.30;5.10;;;21.20;99.90;;;;;;4969968;28;20201;-71
2022/05/08 08:27:27;;;;;;;9.13;5.20;;;21.40;99.90;;;;;;4965704;28;20218;-72
2022/05/08 08:29:54;;;;;;;6.70;5.60;;;21.60;99.90;;;;;;4965696;28;20720;-71
2022/05/08 08:32:25;;;;;;;6.82;4.95;;;21.70;99.90;;;;;;4960629;28;20201;-72
2022/05/08 08:34:53;;;;;;;8.27;5.53;;;21.90;99.90;;;;;;4965616;28;20210;-72
2022/05/08 08:37:19;;;;;;;7.18;5.60;;;21.80;99.90;;;;;;4960594;28;20755;-71
2022/05/08 08:39:46;;;;;;;7.03;5.10;;;21.80;99.90;;;;;;4956516;28;20222;-72
2022/05/08 08:42:31;;;;;;;8.48;6.22;;;21.90;99.90;;;;;;4958543;28;20197;-70
2022/05/08 08:48:03;;;;;;;8.05;5.43;;;21.80;99.90;;;;;;4955623;28;20698;-71
2022/05/08 08:50:32;;;;;;;7.05;5.07;;;21.90;99.90;;;;;;4961071;28;20202;-74
2022/05/08 08:53:04;;;;;;;6.70;5.70;;;22.10;99.90;;;;;;4965254;28;20589;-72
2022/05/08 08:55:32;;;;;;;9.65;5.88;;;22.10;99.90;;;;;;4962955;28;20212;-71
2022/05/08 08:57:59;;;;;;;7.68;5.30;;;21.90;99.90;;;;;;4967853;28;20218;-72
2022/05/08 09:00:25;;;;;;;9.18;5.63;;;21.70;99.90;;;;;;4962533;28;20230;-72
2022/05/08 09:02:53;;;;;;;6.68;5.57;;;21.50;99.90;;;;;;4961668;28;20194;-72
2022/05/08 09:05:22;;;;;;;7.95;5.28;;;21.40;99.90;;;;;;4968830;28;20251;-72
2022/05/08 09:07:50;;;;;;;10.18;5.00;;;21.40;99.90;;;;;;4947309;28;20719;-72
2022/05/08 09:10:19;;;;;;;7.53;5.15;;;21.60;99.90;;;;;;4959461;28;20269;-73
2022/05/08 09:12:52;;;;;;;8.45;5.03;;;21.90;99.90;;;;;;4964838;28;20228;-72
2022/05/08 09:15:38;;;;;;;8.02;5.90;;;22.30;99.90;;;;;;4958268;28;20683;-72
2022/05/08 09:18:10;;;;;;;7.70;5.35;;;22.50;99.90;;;;;;4956603;28;20256;-73
2022/05/08 09:20:48;;;;;;;7.85;5.45;;;22.90;99.90;;;;;;4963695;28;20226;-71
2022/05/08 09:23:18;;;;;;;9.35;5.45;;;23.10;99.90;;;;;;4968683;28;20577;-73
2022/05/08 09:25:45;;;;;;;7.88;5.80;;;23.00;99.90;;;;;;4963762;28;20199;-72
2022/05/08 09:28:40;;;;;;;6.70;5.07;;;22.90;99.90;;;;;;4954758;28;20300;-72
2022/05/08 09:31:09;;;;;;;7.00;5.25;;;22.70;99.90;;;;;;4958571;28;20247;-73
2022/05/08 09:33:46;;;;;;;6.03;5.00;;;22.80;99.90;;;;;;4953223;28;20198;-72
2022/05/08 09:36:20;;;;;;;6.95;5.20;;;22.90;99.90;;;;;;4957592;28;20194;-74
2022/05/08 09:38:49;;;;;;;7.45;5.57;;;23.10;99.90;;;;;;4959261;28;20682;-72
2022/05/08 09:41:22;;;;;;;9.38;5.35;;;22.70;99.90;;;;;;4950275;28;20199;-72
2022/05/08 09:43:50;;;;;;;9.60;4.97;;;22.60;99.90;;;;;;4964180;28;20613;-73
2022/05/08 09:46:20;;;;;;;7.13;5.57;;;22.70;99.90;;;;;;4948445;28;20199;-73
2022/05/08 09:48:47;;;;;;;8.18;4.38;;;23.00;99.90;;;;;;4962746;28;20238;-72
2022/05/08 09:51:16;;;;;;;9.38;5.18;;;23.10;99.90;;;;;;4969221;28;20205;-72
2022/05/08 09:53:45;;;;;;;8.20;5.05;;;23.50;99.90;;;;;;4963655;28;20591;-72
2022/05/08 09:56:13;;;;;;;6.43;5.28;;;23.70;99.90;;;;;;4965419;28;20197;-72
2022/05/08 09:58:40;;;;;;;6.28;5.00;;;24.10;99.90;;;;;;4966489;28;20245;-71
2022/05/08 10:01:07;;;;;;;5.95;4.78;;;24.50;99.90;;;;;;4961631;28;20197;-72
2022/05/08 10:03:34;;;;;;;7.07;4.65;;;24.90;99.90;;;;;;4959740;28;20204;-72
2022/05/08 10:06:02;;;;;;;5.43;4.60;;;25.40;99.90;;;;;;4963163;28;20201;-72
2022/05/08 10:08:33;;;;;;;7.40;4.97;;;25.70;99.90;;;;;;4964537;28;20729;-72
2022/05/08 10:14:07;;;;;;;6.10;4.95;;;26.00;99.90;;;;;;4965987;28;20191;-73
2022/05/08 10:16:56;;;;;;;6.07;4.40;;;26.10;99.90;;;;;;4966042;28;20197;-72
2022/05/08 10:19:25;;;;;;;7.70;4.70;;;25.80;99.90;;;;;;4949723;28;20776;-74
2022/05/08 10:21:59;;;;;;;6.90;4.70;;;25.10;99.90;;;;;;4966069;28;20666;-70
2022/05/08 10:24:31;;;;;;;7.97;4.20;;;24.60;99.90;;;;;;4961381;28;20201;-72
2022/05/08 10:27:29;;;;;;;5.55;4.20;;;25.00;99.90;;;;;;4961416;28;20604;-72
2022/05/08 10:29:56;;;;;;;6.53;4.45;;;25.20;99.90;;;;;;4951534;28;20217;-72
2022/05/08 10:32:32;;;;;;;5.63;4.60;;;25.50;99.90;;;;;;4960373;28;20205;-73
2022/05/08 10:35:12;;;;;;;5.97;4.75;;;25.60;99.90;;;;;;4967922;28;20201;-73
2022/05/08 10:37:44;;;;;;;5.85;4.80;;;25.70;99.90;;;;;;4953096;28;20218;-74
2022/05/08 10:40:22;;;;;;;6.35;4.93;;;25.40;99.90;;;;;;4949622;28;20221;-72
2022/05/08 10:42:50;;;;;;;7.07;4.70;;;25.60;99.90;;;;;;4965176;28;20198;-72
2022/05/08 10:45:36;;;;;;;6.85;5.18;;;26.10;99.90;;;;;;4963479;28;20641;-72
2022/05/08 10:48:08;;;;;;;5.70;4.50;;;26.50;99.90;;;;;;4956002;28;20389;-72
2022/05/08 10:50:36;;;;;;;6.82;4.90;;;27.00;99.90;;;;;;4960684;28;20649;-72
2022/05/08 10:53:03;;;;;;;6.63;4.88;;;26.90;99.90;;;;;;4956182;28;20653;-72
2022/05/08 10:55:30;;;;;;;7.60;5.18;;;27.20;99.90;;;;;;4959428;28;20202;-72
2022/05/08 10:57:57;;;;;;;7.82;5.30;;;27.50;99.90;;;;;;4958652;28;20222;-72
2022/05/08 11:00:29;;;;;;;6.88;4.75;;;27.30;99.90;;;;;;4959902;28;20221;-72
2022/05/08 11:02:58;;;;;;;6.13;4.75;;;26.70;99.90;;;;;;4962317;28;20202;-73
2022/05/08 11:05:30;;;;;;;6.72;4.47;;;26.50;99.90;;;;;;4965351;28;20216;-73
2022/05/08 11:08:01;;;;;;;6.45;4.28;;;26.10;99.90;;;;;;4951956;28;20229;-72
2022/05/08 11:10:39;;;;;;;6.95;4.65;;;25.70;99.90;;;;;;4959145;28;20205;-73
2022/05/08 11:13:19;;;;;;;5.18;4.47;;;25.00;99.90;;;;;;4951831;28;20197;-72
2022/05/08 11:15:48;;;;;;;6.55;5.07;;;24.60;99.90;;;;;;4956949;28;20216;-72
2022/05/08 11:18:17;;;;;;;5.47;4.45;;;24.10;99.90;;;;;;4945172;28;20252;-72
2022/05/08 11:21:01;;;;;;;7.40;4.85;;;24.00;99.90;;;;;;4966052;28;20242;-72
2022/05/08 11:23:29;;;;;;;7.43;5.10;;;24.00;99.90;;;;;;4965019;28;20665;-72
2022/05/08 11:25:57;;;;;;;7.50;5.03;;;23.70;99.90;;;;;;4965133;28;20209;-74
2022/05/08 11:28:25;;;;;;;8.20;5.22;;;23.50;99.90;;;;;;4968624;28;20213;-72
2022/05/08 11:30:53;;;;;;;9.07;5.10;;;23.30;99.90;;;;;;4955226;28;20210;-72
2022/05/08 11:36:30;;;;;;;7.45;5.22;;;23.30;99.90;;;;;;4959171;28;20687;-72
2022/05/08 11:39:19;;;;;;;6.63;4.97;;;23.10;99.90;;;;;;4956481;28;20223;-72
2022/05/08 11:41:49;;;;;;;5.40;4.53;;;22.90;99.90;;;;;;4961320;28;20198;-73
2022/05/08 11:44:15;;;;;;;7.43;4.88;;;23.10;99.90;;;;;;4957463;28;20195;-71
2022/05/08 11:46:56;;;;;;;7.03;4.93;;;23.20;99.90;;;;;;4959987;28;20202;-72
2022/05/08 11:49:30;;;;;;;6.00;4.35;;;23.20;99.90;;;;;;4953236;28;20593;-71
2022/05/08 11:52:02;;;;;;;6.22;4.93;;;23.30;99.90;;;;;;4960008;28;20204;-72
2022/05/08 11:54:32;;;;;;;5.72;4.10;;;23.00;99.90;;;;;;4969531;28;20205;-73
2022/05/08 11:57:21;;;;;;;6.93;3.80;;;23.10;99.90;;;;;;4966465;28;20240;-73
2022/05/08 11:59:50;;;;;;;4.07;3.60;;;23.30;99.90;;;;;;4963870;28;20714;-72
2022/05/08 12:02:18;;;;;;;7.88;4.18;;;23.30;99.90;;;;;;4967355;28;20619;-72
2022/05/08 12:04:57;;;;;;;7.50;4.53;;;23.30;99.90;;;;;;4953253;28;20202;-72
2022/05/08 12:07:24;;;;;;;5.90;4.18;;;23.10;99.90;;;;;;4963771;28;20709;-72
2022/05/08 12:09:52;;;;;;;4.93;4.10;;;23.10;99.90;;;;;;4972410;28;20221;-72
2022/05/08 12:12:22;;;;;;;6.60;3.38;;;23.30;99.90;;;;;;4964385;28;20224;-72
2022/05/08 12:15:03;;;;;;;4.22;3.45;;;23.30;99.90;;;;;;4947571;28;20261;-72
2022/05/08 12:17:44;;;;;;;3.85;3.40;;;23.40;99.90;;;;;;4960258;28;20221;-74
2022/05/08 12:20:17;;;;;;;5.82;3.45;;;23.70;99.90;;;;;;4951993;28;20213;-70
2022/05/08 12:22:44;;;;;;;4.30;3.20;;;23.90;99.90;;;;;;4965916;28;20212;-71
2022/05/08 12:25:12;;;;;;;4.80;3.15;;;23.90;99.90;;;;;;4962287;28;20198;-73
2022/05/08 12:27:40;;;;;;;3.80;3.38;;;24.20;99.90;;;;;;4966901;28;20226;-73
2022/05/08 12:30:07;;;;;;;6.13;3.60;;;24.40;99.90;;;;;;4963596;28;20198;-73
2022/05/08 12:32:39;;;;;;;5.07;3.75;;;24.30;99.90;;;;;;4956393;28;20225;-72
2022/05/08 12:35:06;;;;;;;4.55;3.50;;;24.30;99.90;;;;;;4957206;28;20209;-72
2022/05/08 12:37:33;;;;;;;4.15;3.63;;;24.20;99.90;;;;;;4953852;28;20218;-73
2022/05/08 12:40:00;;;;;;;5.72;3.33;;;24.60;99.90;;;;;;4969707;28;20603;-73
2022/05/08 12:42:27;;;;;;;4.72;3.70;;;24.70;99.90;;;;;;4950981;28;20229;-72
2022/05/08 12:44:54;;;;;;;5.15;3.83;;;24.80;99.90;;;;;;4961928;28;20230;-73
2022/05/08 12:47:20;;;;;;;5.45;3.47;;;25.00;99.90;;;;;;4957819;28;20285;-74
2022/05/08 12:49:49;;;;;;;4.40;3.25;;;25.00;99.90;;;;;;4959027;28;20268;-72
2022/05/08 12:52:16;;;;;;;3.92;3.00;;;25.20;99.90;;;;;;4972955;28;20198;-72
2022/05/08 12:54:43;;;;;;;4.80;3.40;;;25.20;99.90;;;;;;4966885;28;20201;-72
2022/05/08 12:57:10;;;;;;;6.65;3.15;;;25.00;99.90;;;;;;4963463;28;20221;-72
2022/05/08 12:59:46;;;;;;;5.15;3.30;;;24.80;99.90;;;;;;4963996;28;20226;-72
2022/05/08 13:02:15;;;;;;;4.40;3.28;;;24.70;99.90;;;;;;4967255;28;20197;-73
2022/05/08 13:04:43;;;;;;;4.60;3.20;;;24.90;99.90;;;;;;4973160;28;20201;-73
2022/05/08 13:07:10;;;;;;;5.03;3.38;;;25.00;99.90;;;;;;4967765;28;20221;-73
2022/05/08 13:09:37;;;;;;;3.70;3.00;;;25.20;99.90;;;;;;4967148;28;20198;-72
2022/05/08 13:12:05;;;;;;;4.22;2.97;;;25.50;99.90;;;;;;4973442;28;20202;-72
2022/05/08 13:14:33;;;;;;;4.63;3.10;;;25.20;99.90;;;;;;4955407;28;20202;-72
2022/05/08 13:17:02;;;;;;;7.43;3.63;;;25.00;99.90;;;;;;4950230;28;20193;-73
2022/05/08 13:19:29;;;;;;;5.10;3.25;;;24.80;99.90;;;;;;4966918;28;20215;-72